Time;durP1;ratioP1;P1;durP2;ratioP2;P2;SDS_P1;SDS_P2;PMS_P1;PMS_P2;Temp;Humidity;BMP_temperature;BMP_pressure;BME280_temperature;BME280_humidity;BME280_pressure;Samples;Min_cycle;Max_cycle;Signal;HPM_P1;HPM_P2
2022/05/21 00:01:59;;;;;;;4.95;2.70;;;18.40;99.90;;;18.44;62.26;98037.09;5007447;28;20061;-51
2022/05/21 00:04:28;;;;;;;5.78;3.95;;;18.30;99.90;;;18.28;62.43;98046.34;5008454;28;20053;-54
2022/05/21 00:06:57;;;;;;;4.93;2.88;;;18.10;99.90;;;18.28;63.06;98041.81;5008232;28;20067;-51
2022/05/21 00:09:27;;;;;;;4.28;3.42;;;18.10;99.90;;;18.39;63.21;98042.25;5007421;28;20045;-53
2022/05/21 00:11:56;;;;;;;5.05;4.22;;;18.10;99.90;;;18.39;63.60;98048.47;5005848;28;20057;-53
2022/05/21 00:14:24;;;;;;;5.85;4.15;;;18.20;99.90;;;18.46;63.89;98041.25;5008150;28;20259;-52
2022/05/21 00:16:52;;;;;;;6.22;4.03;;;18.20;99.90;;;18.52;63.91;98044.16;5008380;28;20041;-54
2022/05/21 00:19:20;;;;;;;9.60;4.72;;;18.20;99.90;;;18.57;64.18;98057.84;5006424;28;20053;-52
2022/05/21 00:21:47;;;;;;;5.90;4.55;;;18.30;99.90;;;18.58;64.01;98054.16;5007615;28;20059;-53
2022/05/21 00:24:15;;;;;;;5.88;4.00;;;18.30;99.90;;;18.65;63.83;98046.88;5005745;28;20056;-52
2022/05/21 00:26:44;;;;;;;4.90;4.18;;;18.40;99.90;;;18.55;63.89;98060.75;5007119;28;20064;-54
2022/05/21 00:29:12;;;;;;;5.18;4.15;;;18.30;99.90;;;18.57;63.68;98058.72;5007230;28;20362;-52
2022/05/21 00:31:39;;;;;;;5.47;4.97;;;18.20;99.90;;;18.56;63.81;98059.72;5006992;28;20054;-53
2022/05/21 00:34:07;;;;;;;5.32;4.45;;;18.30;99.90;;;18.44;64.61;98066.75;5007410;28;20064;-53
2022/05/21 00:36:36;;;;;;;8.43;5.45;;;18.10;99.90;;;18.45;64.58;98081.88;5008269;28;20221;-52
2022/05/21 00:39:04;;;;;;;5.95;4.43;;;18.10;99.90;;;18.51;64.38;98078.38;5007499;28;20128;-50
2022/05/21 00:41:32;;;;;;;5.30;4.63;;;18.20;99.90;;;18.53;64.32;98086.25;5007365;28;20513;-50
2022/05/21 00:44:02;;;;;;;5.88;5.38;;;18.20;99.90;;;18.55;64.00;98092.28;5005778;28;20267;-52
2022/05/21 00:46:38;;;;;;;6.30;5.65;;;18.10;99.90;;;18.52;63.99;98092.69;5007452;28;20413;-54
2022/05/21 00:49:33;;;;;;;5.75;4.97;;;18.10;99.90;;;18.55;63.88;98101.19;5005094;28;20041;-50
2022/05/21 00:52:24;;;;;;;5.88;4.63;;;18.20;99.90;;;18.54;63.68;98109.50;5006943;28;20068;-53
2022/05/21 00:55:04;;;;;;;5.47;4.97;;;18.20;99.90;;;18.51;63.38;98105.31;5006369;28;20050;-52
2022/05/21 00:57:47;;;;;;;9.73;4.93;;;18.20;99.90;;;18.35;62.96;98111.06;5006080;28;20045;-54
2022/05/21 01:00:20;;;;;;;8.40;4.40;;;18.10;99.90;;;18.40;62.62;98106.75;5006249;28;20054;-54
2022/05/21 01:02:53;;;;;;;5.20;4.05;;;18.10;99.90;;;18.32;62.06;98106.06;5006696;28;20236;-52
2022/05/21 01:05:25;;;;;;;;;;;18.00;99.90;;;17.98;62.81;98107.75;5008221;28;20057;-49
2022/05/21 01:07:58;;;;;;;5.28;4.78;;;17.60;99.90;;;17.93;62.83;98102.09;5006752;28;19931;-54
2022/05/21 01:10:33;;;;;;;6.43;4.18;;;17.50;99.90;;;17.99;62.30;98104.00;5006018;28;20046;-51
2022/05/21 01:13:06;;;;;;;4.88;4.38;;;17.60;99.90;;;17.84;62.42;98099.56;5006598;28;20056;-50
2022/05/21 01:15:42;;;;;;;5.28;4.18;;;17.40;99.90;;;17.82;62.16;98109.69;5006519;28;20054;-53
2022/05/21 01:18:11;;;;;;;4.50;4.00;;;17.40;99.90;;;17.89;62.17;98120.53;5005107;28;20061;-54
2022/05/21 01:20:48;;;;;;;5.75;4.25;;;17.40;99.90;;;17.67;62.50;98119.72;5006541;28;20045;-53
2022/05/21 01:23:17;;;;;;;5.68;3.78;;;17.20;99.90;;;17.56;62.18;98110.28;5007410;28;20054;-48
2022/05/21 01:25:48;;;;;;;6.43;3.97;;;17.10;99.90;;;17.55;62.39;98118.59;5006733;28;20264;-52
2022/05/21 01:28:22;;;;;;;5.75;4.28;;;17.10;99.90;;;17.36;62.87;98125.44;5005286;28;20068;-53
2022/05/21 01:30:53;;;;;;;;;;;16.90;99.90;;;17.03;63.22;98118.72;5007262;28;20049;-54
2022/05/21 01:33:28;;;;;;;4.88;4.38;;;16.70;99.90;;;17.10;63.09;98125.00;5006481;28;19917;-52
2022/05/21 01:35:58;;;;;;;5.03;4.53;;;16.60;99.90;;;17.16;62.58;98127.94;5006680;28;20054;-50
2022/05/21 01:38:28;;;;;;;7.25;4.28;;;16.70;99.90;;;17.19;62.26;98131.06;5006913;28;20062;-52
2022/05/21 01:40:57;;;;;;;5.05;4.55;;;16.70;99.90;;;17.10;62.51;98125.00;5005422;28;20062;-51
2022/05/21 01:46:17;;;;;;;4.93;3.88;;;16.60;99.90;;;16.99;62.37;98130.06;5007245;28;20379;-50
2022/05/21 01:48:45;;;;;;;3.85;3.50;;;16.50;99.90;;;16.79;62.72;98132.47;5003467;28;20084;-53
2022/05/21 01:51:13;;;;;;;6.25;4.78;;;16.40;99.90;;;16.97;62.13;98138.31;5006758;28;20057;-51
2022/05/21 01:53:42;;;;;;;7.10;4.50;;;16.50;99.90;;;16.56;63.35;98140.69;5005974;28;20053;-50
2022/05/21 01:56:11;;;;;;;6.93;4.57;;;16.20;99.90;;;16.64;62.97;98145.94;5007993;28;20052;-52
2022/05/21 01:58:40;;;;;;;6.60;4.90;;;16.10;99.90;;;16.58;63.16;98144.84;5011182;28;20046;-53
2022/05/21 02:01:09;;;;;;;6.80;4.05;;;16.10;99.90;;;16.52;62.95;98156.34;5009340;28;20127;-52
2022/05/21 02:03:38;;;;;;;7.10;4.40;;;16.10;99.90;;;16.52;62.81;98156.34;5010218;28;20057;-51
2022/05/21 02:06:06;;;;;;;7.60;4.22;;;16.10;99.90;;;16.24;63.70;98156.97;5010104;28;20348;-54
2022/05/21 02:08:35;;;;;;;5.57;4.13;;;15.90;99.90;;;16.24;63.77;98173.09;5008997;28;20076;-49
2022/05/21 02:11:04;;;;;;;6.13;4.60;;;15.70;99.90;;;16.06;64.20;98173.47;5009286;28;20348;-50
2022/05/21 02:13:33;;;;;;;6.25;4.65;;;15.60;99.90;;;16.05;64.18;98181.69;5008663;28;20060;-52
2022/05/21 02:16:02;;;;;;;7.60;5.22;;;15.60;99.90;;;16.10;63.83;98182.00;5010537;28;20054;-53
2022/05/21 02:18:30;;;;;;;5.68;5.05;;;15.70;99.90;;;16.13;63.80;98184.31;5010055;28;20064;-52
2022/05/21 02:20:58;;;;;;;7.60;4.10;;;15.70;99.90;;;16.05;63.76;98184.38;5009680;28;20058;-50
2022/05/21 02:23:27;;;;;;;6.38;4.75;;;15.70;99.90;;;16.09;63.79;98191.06;5009209;28;20064;-51
2022/05/21 02:26:00;;;;;;;6.63;4.93;;;15.70;99.90;;;16.15;63.58;98184.97;5010143;28;20058;-54
2022/05/21 02:28:29;;;;;;;6.32;5.10;;;15.70;99.90;;;16.01;63.92;98191.13;5010208;28;20061;-50
2022/05/21 02:30:57;;;;;;;7.00;4.40;;;15.60;99.90;;;16.15;63.39;98195.72;5010018;28;20057;-53
2022/05/21 02:33:25;;;;;;;6.20;4.43;;;15.70;99.90;;;15.78;64.69;98202.78;5010101;28;20042;-52
2022/05/21 02:35:54;;;;;;;7.60;4.57;;;15.50;99.90;;;15.93;64.01;98190.19;5010657;28;20256;-54
2022/05/21 02:41:15;;;;;;;5.47;4.47;;;15.60;99.90;;;16.09;63.28;98193.75;5010341;28;20062;-49
2022/05/21 02:43:46;;;;;;;4.70;4.25;;;15.60;99.90;;;15.92;63.28;98195.75;5010040;28;20263;-52
2022/05/21 02:46:15;;;;;;;5.18;4.45;;;15.40;99.90;;;15.78;63.44;98209.97;5009810;28;20546;-52
2022/05/21 02:48:45;;;;;;;6.95;4.72;;;15.30;99.90;;;15.77;63.46;98209.13;5008859;28;20068;-49
2022/05/21 02:51:13;;;;;;;6.65;4.60;;;15.30;99.90;;;15.75;63.39;98213.84;5008519;28;20050;-50
2022/05/21 02:53:41;;;;;;;7.03;5.53;;;15.30;99.90;;;15.28;64.77;98215.66;5009064;28;20046;-53
2022/05/21 02:56:13;;;;;;;6.72;5.65;;;14.90;99.90;;;15.56;63.89;98220.50;5009993;28;20053;-52
2022/05/21 02:58:41;;;;;;;8.90;6.18;;;15.00;99.90;;;15.45;64.16;98220.91;5009783;28;20056;-52
2022/05/21 03:01:09;;;;;;;7.75;6.07;;;14.90;99.90;;;15.47;64.29;98225.13;5009024;28;20062;-48
2022/05/21 03:03:37;;;;;;;8.50;5.95;;;15.00;99.90;;;15.52;63.81;98230.75;5009810;28;20053;-51
2022/05/21 03:06:05;;;;;;;8.02;5.50;;;15.10;99.90;;;15.60;63.48;98235.22;5008498;28;20065;-54
2022/05/21 03:11:19;;;;;;;6.40;5.25;;;14.90;99.90;;;15.38;64.12;98231.53;5010063;28;20097;-53
2022/05/21 03:13:47;;;;;;;5.97;5.18;;;14.80;99.90;;;15.46;63.69;98236.00;5008643;28;20050;-52
2022/05/21 03:16:14;;;;;;;8.05;5.28;;;14.90;99.90;;;15.51;63.41;98241.69;5009390;28;20060;-53
2022/05/21 03:18:42;;;;;;;6.82;6.13;;;14.90;99.90;;;15.40;63.11;98232.19;5008516;28;20054;-54
2022/05/21 03:21:10;;;;;;;7.07;5.20;;;14.90;99.90;;;15.42;63.28;98234.69;5008184;28;20348;-54
2022/05/21 03:23:43;;;;;;;8.30;5.40;;;14.80;99.90;;;15.47;63.16;98234.97;5007619;28;20252;-54
2022/05/21 03:26:11;;;;;;;7.47;6.10;;;14.90;99.90;;;15.59;63.10;98238.94;5007733;28;20861;-51
2022/05/21 03:28:39;;;;;;;8.05;5.93;;;15.00;99.90;;;15.60;62.85;98239.78;5009398;28;20075;-51
2022/05/21 03:31:06;;;;;;;6.72;5.97;;;15.00;99.90;;;15.68;62.86;98240.56;5008869;28;20230;-54
2022/05/21 03:33:34;;;;;;;7.82;6.18;;;15.20;99.90;;;15.72;62.61;98246.38;5007460;28;20217;-54
2022/05/21 03:36:04;;;;;;;9.38;6.18;;;15.20;99.90;;;15.60;62.87;98245.97;5009204;28;20052;-53
2022/05/21 03:38:33;;;;;;;8.25;7.30;;;15.10;99.90;;;15.69;62.24;98246.75;5006371;28;20050;-52
2022/05/21 03:41:01;;;;;;;9.25;6.43;;;15.10;99.90;;;15.71;62.47;98250.09;5007426;28;20060;-54
2022/05/21 03:43:29;;;;;;;7.88;6.30;;;15.20;99.90;;;15.50;63.02;98245.38;5008589;28;20383;-53
2022/05/21 03:45:57;;;;;;;8.00;6.70;;;15.00;99.90;;;15.60;62.65;98248.66;5008353;28;20320;-50
2022/05/21 03:48:25;;;;;;;9.18;6.85;;;15.00;99.90;;;15.43;63.17;98255.13;5008951;28;20057;-49
2022/05/21 03:50:53;;;;;;;8.07;6.93;;;14.80;99.90;;;15.48;62.86;98261.66;5008193;28;20060;-51
2022/05/21 03:53:20;;;;;;;9.50;7.18;;;14.90;99.90;;;15.45;62.98;98261.16;5007943;28;20047;-51
2022/05/21 03:55:48;;;;;;;9.77;7.68;;;14.80;99.90;;;15.45;62.87;98261.16;5008810;28;20057;-51
2022/05/21 03:58:16;;;;;;;9.73;6.88;;;14.80;99.90;;;15.40;63.30;98261.69;5008131;28;20348;-51
2022/05/21 04:00:44;;;;;;;11.02;7.70;;;14.90;99.90;;;15.42;63.08;98267.72;5008568;28;20068;-52
2022/05/21 04:03:12;;;;;;;11.30;7.82;;;14.90;99.90;;;15.48;63.03;98264.34;5008589;28;20363;-52
2022/05/21 04:05:40;;;;;;;11.07;8.55;;;14.90;99.90;;;15.50;63.09;98264.16;5008916;28;20259;-54
2022/05/21 04:08:08;;;;;;;11.50;8.45;;;15.00;99.90;;;15.38;63.19;98269.09;5008655;28;20058;-53
2022/05/21 04:10:36;;;;;;;10.07;7.72;;;14.80;99.90;;;15.41;62.88;98274.13;5008228;28;20237;-53
2022/05/21 04:13:04;;;;;;;8.32;7.40;;;14.80;99.90;;;15.48;62.67;98268.88;5005218;28;20050;-50
2022/05/21 04:15:34;;;;;;;10.40;7.28;;;14.90;99.90;;;15.41;62.78;98267.91;5007600;28;20060;-53
2022/05/21 04:18:02;;;;;;;8.38;7.38;;;14.80;99.90;;;15.21;63.13;98262.97;5005326;28;20233;-52
2022/05/21 04:20:30;;;;;;;7.95;7.10;;;14.60;99.90;;;15.10;63.24;98261.53;5008122;28;20370;-54
2022/05/21 04:22:58;;;;;;;7.82;6.72;;;14.50;99.90;;;15.00;63.27;98266.25;5008485;28;20050;-52
2022/05/21 04:25:26;;;;;;;9.05;7.03;;;14.40;99.90;;;15.09;63.00;98256.34;5009198;28;20566;-54
2022/05/21 04:27:54;;;;;;;8.38;6.82;;;14.50;99.90;;;15.18;62.74;98265.16;5007242;28;20046;-51
2022/05/21 04:30:28;;;;;;;9.73;6.53;;;14.60;99.90;;;15.13;62.60;98263.84;5007247;28;20589;-51
2022/05/21 04:32:57;;;;;;;;;;;14.60;99.90;;;15.11;62.55;98273.91;5008387;28;20045;-51
2022/05/21 04:36:17;;;;;;;7.38;5.70;;;14.60;99.90;;;15.11;62.16;98278.47;5008162;28;19925;-56
2022/05/21 04:38:16;;;;;;;8.07;5.97;;;14.50;99.90;;;15.12;62.14;98283.66;5007328;28;20068;-53
2022/05/21 04:40:45;;;;;;;8.40;6.85;;;14.50;99.90;;;14.86;62.82;98277.72;5007545;28;20348;-53
2022/05/21 04:43:13;;;;;;;8.05;6.68;;;14.40;99.90;;;14.91;62.57;98273.50;5007245;28;20064;-54
2022/05/21 04:45:41;;;;;;;10.20;6.28;;;14.40;99.90;;;15.03;62.55;98279.31;5006580;28;20060;-51
2022/05/21 04:48:09;;;;;;;7.90;6.70;;;14.50;99.90;;;15.04;62.70;98278.31;5007232;28;20054;-54
2022/05/21 04:50:39;;;;;;;8.48;7.00;;;14.50;99.90;;;15.05;62.86;98279.16;5006019;28;20371;-51
2022/05/21 04:53:07;;;;;;;8.00;7.20;;;14.50;99.90;;;14.96;62.84;98276.50;5007602;28;20053;-55
2022/05/21 04:55:35;;;;;;;8.02;6.93;;;14.50;99.90;;;14.98;63.04;98284.38;5007111;28;20042;-53
2022/05/21 04:58:04;;;;;;;9.80;7.85;;;14.50;99.90;;;15.02;62.90;98282.19;5007227;28;20233;-51
2022/05/21 05:00:32;;;;;;;11.98;7.97;;;14.50;99.90;;;14.89;63.13;98275.53;5006183;28;20046;-54
2022/05/21 05:03:00;;;;;;;8.98;6.82;;;14.40;99.90;;;14.92;63.13;98277.03;5005936;28;20057;-51
2022/05/21 05:05:28;;;;;;;8.90;7.35;;;14.40;99.90;;;14.86;63.19;98283.06;5007060;28;20065;-53
2022/05/21 05:07:56;;;;;;;7.78;6.75;;;14.40;99.90;;;14.91;63.25;98280.72;5006467;28;20049;-54
2022/05/21 05:10:24;;;;;;;7.72;6.93;;;14.50;99.90;;;14.57;64.22;98285.31;5007352;28;20080;-55
2022/05/21 05:12:52;;;;;;;7.50;6.47;;;14.30;99.90;;;14.60;64.05;98288.66;5005255;28;20337;-54
2022/05/21 05:15:19;;;;;;;8.48;7.38;;;14.20;99.90;;;14.66;63.88;98296.03;5005967;28;20049;-52
2022/05/21 05:17:47;;;;;;;7.93;6.60;;;14.30;99.90;;;14.76;63.62;98288.63;5006457;28;20052;-50
2022/05/21 05:20:15;;;;;;;10.82;7.40;;;14.40;99.90;;;14.82;63.35;98300.53;5006783;28;20060;-55
2022/05/21 05:22:43;;;;;;;8.13;6.88;;;14.50;99.90;;;14.73;63.68;98295.19;5006320;28;20060;-54
2022/05/21 05:25:11;;;;;;;8.70;7.18;;;14.40;99.90;;;14.79;63.54;98290.97;5007418;28;20052;-51
2022/05/21 05:27:39;;;;;;;7.80;6.32;;;14.50;99.90;;;14.84;63.57;98293.97;5005767;28;20052;-51
2022/05/21 05:30:08;;;;;;;9.07;7.70;;;14.60;99.90;;;14.88;63.56;98286.41;5006365;28;20081;-52
2022/05/21 05:32:36;;;;;;;11.07;6.68;;;14.60;99.90;;;14.77;63.96;98284.94;5007159;28;20641;-53
2022/05/21 05:35:06;;;;;;;8.40;6.00;;;14.50;99.90;;;14.94;63.38;98286.56;5005967;28;20059;-52
2022/05/21 05:37:34;;;;;;;8.20;6.60;;;14.70;99.90;;;14.74;63.15;98290.66;5006103;28;20105;-55
2022/05/21 05:40:03;;;;;;;7.68;6.82;;;14.60;99.90;;;14.92;63.22;98287.75;5006187;28;20065;-53
2022/05/21 05:42:31;;;;;;;9.75;6.88;;;14.60;99.90;;;14.96;63.07;98292.56;5007128;28;20064;-54
2022/05/21 05:44:59;;;;;;;9.82;7.53;;;14.70;99.90;;;14.93;63.16;98289.44;5007004;28;20072;-55
2022/05/21 05:47:27;;;;;;;8.25;6.88;;;14.70;99.90;;;15.08;63.10;98286.84;5006467;28;20049;-52
2022/05/21 05:49:55;;;;;;;7.90;6.80;;;14.80;99.90;;;15.03;63.07;98289.22;5005349;28;20050;-54
2022/05/21 05:52:23;;;;;;;10.30;7.78;;;14.80;99.90;;;15.02;63.24;98287.53;5007254;28;20054;-54
2022/05/21 05:54:52;;;;;;;7.28;5.97;;;14.80;99.90;;;15.20;63.11;98292.66;5006116;28;20247;-54
2022/05/21 05:57:20;;;;;;;5.18;4.53;;;15.00;99.90;;;15.35;62.81;98288.22;5004380;28;20233;-54
2022/05/21 05:59:51;;;;;;;5.10;4.60;;;15.20;99.90;;;15.42;62.02;98299.09;5004147;28;20058;-52
2022/05/21 06:05:19;;;;;;;6.05;5.35;;;15.40;99.80;;;15.54;61.04;98289.63;5005058;28;20049;-58
2022/05/21 06:07:53;;;;;;;5.57;4.78;;;15.50;98.20;;;15.60;60.98;98291.59;5006582;28;20064;-55
2022/05/21 06:10:32;;;;;;;7.25;4.50;;;15.50;97.50;;;15.52;61.39;98295.16;5006432;28;20061;-56
2022/05/21 06:13:02;;;;;;;5.05;4.43;;;15.40;99.30;;;15.63;61.13;98295.78;5004657;28;20239;-57
2022/05/21 06:15:31;;;;;;;11.20;4.35;;;15.40;99.10;;;15.68;60.19;98299.63;5006811;28;20056;-59
2022/05/21 06:18:07;;;;;;;7.55;3.72;;;15.50;97.30;;;15.38;58.35;98300.47;5007472;28;20052;-55
2022/05/21 06:20:36;;;;;;;5.20;3.78;;;15.40;90.80;;;15.28;59.95;98296.13;5006621;28;20062;-57
2022/05/21 06:23:04;;;;;;;5.07;3.88;;;15.10;96.30;;;15.47;60.07;98302.06;5006067;28;20050;-57
2022/05/21 06:25:35;;;;;;;4.00;3.60;;;15.30;97.10;;;15.40;59.66;98303.81;5004070;28;20064;-58
2022/05/21 06:28:05;;;;;;;3.78;3.28;;;15.30;94.30;;;15.30;59.95;98296.81;5005576;28;20058;-56
2022/05/21 06:30:36;;;;;;;5.10;3.70;;;15.10;95.60;;;15.51;60.12;98295.38;5005354;28;20053;-56
2022/05/21 06:33:24;;;;;;;5.95;3.90;;;15.40;96.00;;;15.43;59.34;98296.25;5004431;28;20050;-58
2022/05/21 06:36:07;;;;;;;4.03;3.33;;;15.50;93.00;;;15.70;59.42;98302.09;5006092;28;20064;-56
2022/05/21 06:38:39;;;;;;;4.35;2.63;;;15.70;93.40;;;15.66;58.52;98292.72;5003954;28;20392;-55
2022/05/21 06:41:08;;;;;;;3.72;2.80;;;15.60;90.60;;;15.70;57.39;98300.28;5006484;28;20080;-53
2022/05/21 06:43:36;;;;;;;5.22;2.90;;;15.70;88.50;;;15.79;58.22;98294.88;5008306;28;20339;-57
2022/05/21 06:46:05;;;;;;;5.90;2.35;;;15.70;91.40;;;15.93;58.21;98302.97;5009145;28;20156;-55
2022/05/21 06:48:33;;;;;;;3.13;2.03;;;15.90;90.60;;;15.69;57.59;98300.44;5008654;28;20064;-58
2022/05/21 06:51:05;;;;;;;5.18;2.70;;;15.70;87.80;;;15.79;57.09;98290.31;5009180;28;20252;-53
2022/05/21 06:53:37;;;;;;;3.03;1.70;;;15.70;89.00;;;15.72;55.76;98300.94;5011037;28;20065;-56
2022/05/21 06:56:13;;;;;;;3.88;1.77;;;15.80;83.20;;;15.80;55.62;98308.13;5009280;28;20453;-52
2022/05/21 06:58:42;;;;;;;4.10;1.55;;;15.80;74.60;;;15.75;54.62;98305.94;5008899;28;20050;-54
2022/05/21 07:01:10;;;;;;;3.65;1.73;;;15.80;71.30;;;15.74;53.84;98317.72;5007440;28;20054;-57
2022/05/21 07:03:39;;;;;;;3.10;2.28;;;15.70;67.40;;;15.72;53.68;98314.34;5007382;28;20080;-54
2022/05/21 07:08:53;;;;;;;2.28;1.52;;;15.70;65.60;;;15.93;53.42;98320.94;5008773;28;20057;-57
2022/05/21 07:11:21;;;;;;;3.63;1.65;;;15.90;65.20;;;16.07;53.52;98325.53;5007937;28;20041;-58
2022/05/21 07:13:49;;;;;;;3.00;1.48;;;16.00;65.60;;;16.04;52.54;98323.19;5008605;28;20057;-55
2022/05/21 07:16:16;;;;;;;3.22;1.60;;;16.00;63.30;;;15.91;52.99;98317.59;5007991;28;20038;-52
2022/05/21 07:18:46;;;;;;;2.00;1.27;;;15.90;63.80;;;16.10;51.65;98314.44;5008521;28;20046;-53
2022/05/21 07:21:17;;;;;;;3.50;1.38;;;16.10;63.50;;;15.89;50.50;98301.66;5008675;28;20355;-54
2022/05/21 07:23:46;;;;;;;3.78;1.38;;;16.00;59.70;;;16.10;51.75;98305.53;5009118;28;20356;-52
2022/05/21 07:26:16;;;;;;;2.75;1.30;;;16.10;62.40;;;16.14;51.70;98307.66;5008188;28;20054;-53
2022/05/21 07:28:45;;;;;;;3.55;1.40;;;16.10;62.10;;;16.22;51.25;98301.41;5008725;28;20053;-54
2022/05/21 07:31:13;;;;;;;4.25;1.95;;;16.20;61.10;;;16.29;51.57;98302.34;5008789;28;20046;-54
2022/05/21 07:33:41;;;;;;;3.60;1.65;;;16.30;61.80;;;16.36;51.54;98302.44;5008223;28;20046;-54
2022/05/21 07:36:09;;;;;;;1.75;1.63;;;16.30;60.90;;;16.43;51.24;98294.50;5008657;28;20054;-55
2022/05/21 07:38:37;;;;;;;2.63;1.45;;;16.40;60.90;;;16.36;50.48;98291.69;5007895;28;20277;-54
2022/05/21 07:41:07;;;;;;;1.20;1.10;;;16.30;60.30;;;16.45;50.71;98303.22;5007817;28;20210;-55
2022/05/21 07:43:35;;;;;;;1.90;1.33;;;16.40;60.70;;;16.51;50.92;98305.16;5008146;28;20104;-54
2022/05/21 07:46:03;;;;;;;2.28;1.50;;;16.40;59.80;;;16.41;51.11;98315.34;5008724;28;20060;-54
2022/05/21 07:48:31;;;;;;;2.08;1.70;;;16.40;59.80;;;16.33;51.04;98309.03;5008347;28;20213;-55
2022/05/21 07:51:06;;;;;;;2.22;1.30;;;16.30;60.20;;;16.44;51.05;98304.22;5007529;28;20050;-53
2022/05/21 07:53:43;;;;;;;2.05;1.75;;;16.40;59.80;;;16.57;51.64;98309.81;5007348;28;20052;-51
2022/05/21 07:56:17;;;;;;;2.03;1.42;;;16.60;61.50;;;16.61;51.26;98312.97;5008667;28;20053;-55
2022/05/21 07:58:45;;;;;;;2.10;1.55;;;16.60;61.00;;;16.40;51.01;98316.34;5007904;28;20048;-52
2022/05/21 08:01:13;;;;;;;3.83;1.40;;;16.50;60.20;;;16.54;51.33;98316.38;5031832;28;20308;-55
2022/05/21 08:03:46;;;;;;;2.05;1.60;;;16.50;60.90;;;16.55;51.32;98309.16;5034708;28;20365;-54
2022/05/21 08:06:15;;;;;;;1.65;1.17;;;16.60;60.50;;;16.64;51.48;98297.31;5037185;28;20056;-51
2022/05/21 08:08:44;;;;;;;7.47;2.17;;;16.70;60.60;;;16.67;51.18;98309.53;5032865;28;20049;-51
2022/05/21 08:11:12;;;;;;;2.28;1.40;;;16.70;60.30;;;16.74;51.05;98305.94;5038510;28;20049;-53
2022/05/21 08:13:43;;;;;;;3.97;1.50;;;16.80;59.60;;;16.80;51.27;98296.28;5030459;28;20359;-51
2022/05/21 08:16:10;;;;;;;3.13;1.80;;;16.90;60.10;;;16.84;51.53;98304.84;5030110;28;20037;-54
2022/05/21 08:18:38;;;;;;;2.80;1.85;;;16.90;60.30;;;16.80;51.56;98311.59;5031308;28;20052;-53
2022/05/21 08:21:07;;;;;;;2.17;1.60;;;16.90;60.80;;;16.70;51.27;98303.81;5034952;28;20056;-54
2022/05/21 08:29:10;;;;;;;2.20;1.73;;;16.90;58.90;;;16.64;50.88;98307.22;5007859;28;20058;-55
2022/05/21 08:31:38;;;;;;;2.45;1.60;;;16.80;59.20;;;16.76;51.61;98295.00;5008433;28;20132;-49
2022/05/21 08:34:06;;;;;;;1.95;1.30;;;16.80;60.60;;;16.87;51.20;98293.75;5007790;28;20058;-53
2022/05/21 08:36:34;;;;;;;1.75;1.40;;;17.00;59.80;;;16.91;49.85;98292.34;5007049;28;20057;-51
2022/05/21 08:39:03;;;;;;;1.20;1.10;;;17.10;57.30;;;16.91;50.43;98308.50;5007696;28;20050;-53
2022/05/21 08:41:33;;;;;;;1.88;1.30;;;17.00;58.80;;;16.92;50.15;98302.06;5007263;28;20054;-52
2022/05/21 08:44:17;;;;;;;2.05;1.33;;;17.00;58.50;;;16.87;50.43;98299.94;5006321;28;20059;-54
2022/05/21 08:47:34;;;;;;;2.53;1.40;;;17.00;58.60;;;17.08;50.77;98298.38;5005871;28;20083;-53
2022/05/21 08:50:13;;;;;;;2.08;1.20;;;17.20;58.90;;;17.10;50.40;98310.63;5004318;28;20301;-53
2022/05/21 08:53:09;;;;;;;2.60;1.30;;;17.30;58.40;;;17.27;50.20;98305.00;5004546;28;20057;-50
2022/05/21 08:55:49;;;;;;;1.90;1.25;;;17.40;57.50;;;17.43;50.40;98293.22;5035668;28;20045;-50
2022/05/21 08:58:28;;;;;;;3.00;1.48;;;17.60;58.70;;;17.32;49.12;98297.22;5036931;28;20087;-55
2022/05/21 09:00:56;;;;;;;3.97;1.98;;;17.50;57.30;;;17.22;49.89;98292.13;5037434;28;20041;-50
2022/05/21 09:03:27;;;;;;;2.65;1.70;;;17.30;58.20;;;17.42;50.37;98300.44;5020679;28;20051;-52
2022/05/21 09:06:46;;;;;;;2.25;1.27;;;17.50;58.80;;;17.34;49.31;98284.41;5036184;28;20060;-54
2022/05/21 09:09:57;;;;;;;1.40;1.10;;;17.70;57.40;;;17.22;48.53;98285.94;5036808;28;20110;-54
2022/05/21 09:13:06;;;;;;;2.10;1.40;;;17.40;56.30;;;17.12;49.57;98289.75;5035204;28;20053;-51
2022/05/21 09:18:23;;;;;;;1.63;1.30;;;17.30;57.30;;;17.44;49.72;98282.25;5036670;28;20045;-48
2022/05/21 09:21:04;;;;;;;3.45;1.60;;;17.50;57.90;;;17.37;49.73;98278.66;5035223;28;20053;-51
2022/05/21 09:23:57;;;;;;;1.70;1.35;;;17.50;57.80;;;17.46;49.71;98282.88;5037188;28;20048;-49
2022/05/21 09:26:47;;;;;;;3.30;1.33;;;17.60;57.80;;;17.37;50.19;98273.28;5033557;28;20060;-51
2022/05/21 09:29:34;;;;;;;1.55;1.35;;;17.50;58.70;;;17.56;49.70;98279.06;5035968;28;20049;-51
2022/05/21 09:32:32;;;;;;;2.90;1.50;;;17.70;57.40;;;17.61;48.22;98272.09;5038568;28;20367;-48
2022/05/21 09:35:15;;;;;;;2.72;1.30;;;17.90;54.80;;;17.60;47.22;98267.75;5037647;28;20048;-49
2022/05/21 09:37:44;;;;;;;1.27;1.17;;;17.80;53.70;;;17.40;48.55;98270.19;5038027;28;20047;-54
2022/05/21 09:40:24;;;;;;;3.28;1.35;;;17.60;55.60;;;17.51;48.46;98267.00;5037629;28;20220;-53
2022/05/21 09:45:41;;;;;;;2.95;1.48;;;17.60;57.40;;;17.74;49.25;98263.31;5036165;28;20041;-47
2022/05/21 09:48:09;;;;;;;2.15;1.75;;;17.90;57.00;;;17.70;48.38;98246.72;5035922;28;20045;-50
2022/05/21 09:50:50;;;;;;;1.13;1.02;;;17.90;55.30;;;17.84;48.40;98249.56;5037401;28;20037;-49
2022/05/21 09:53:38;;;;;;;1.40;1.30;;;18.00;55.70;;;17.87;47.35;98260.78;5038565;28;20040;-52
2022/05/21 09:56:18;;;;;;;2.08;1.50;;;18.10;54.00;;;17.79;47.81;98255.47;5033606;28;20376;-52
2022/05/21 09:58:50;;;;;;;2.30;1.30;;;18.00;55.00;;;17.74;47.77;98254.38;5036856;28;20064;-48
2022/05/21 10:01:36;;;;;;;3.90;1.30;;;17.90;54.60;;;17.74;47.92;98255.25;5037209;28;20174;-52
2022/05/21 10:04:30;;;;;;;2.00;1.40;;;18.10;54.50;;;17.86;46.93;98259.09;5032189;28;20057;-51
2022/05/21 10:07:03;;;;;;;2.20;1.30;;;18.10;53.50;;;17.81;45.63;98249.91;5034903;28;20045;-49
2022/05/21 10:12:32;;;;;;;1.98;1.20;;;18.10;53.70;;;17.98;46.68;98251.34;5021012;28;20064;-51
2022/05/21 10:15:18;;;;;;;1.77;1.52;;;18.20;52.60;;;17.98;46.48;98262.13;5020253;28;20042;-51
2022/05/21 10:17:59;;;;;;;1.27;1.17;;;18.30;52.60;;;17.96;47.59;98253.41;5023844;28;20050;-50
2022/05/21 10:20:38;;;;;;;5.53;1.35;;;18.30;54.50;;;18.21;47.67;98247.59;5024589;28;20252;-52
2022/05/21 10:23:33;;;;;;;1.52;1.25;;;18.40;54.40;;;18.23;45.97;98249.06;5037385;28;20363;-48
2022/05/21 10:26:34;;;;;;;;;;;18.60;51.50;;;18.19;45.57;98237.00;5042701;28;20041;-48
2022/05/21 10:29:29;;;;;;;4.43;1.77;;;18.60;51.40;;;18.19;45.60;98238.88;5036954;28;19925;-51
2022/05/21 10:32:34;;;;;;;2.05;1.20;;;18.50;51.30;;;18.14;44.24;98244.00;5033271;28;20049;-50
2022/05/21 10:35:29;;;;;;;2.05;1.30;;;18.50;50.10;;;18.33;45.05;98224.47;5030687;28;20049;-49
2022/05/21 10:38:11;;;;;;;2.10;1.30;;;18.60;51.20;;;18.39;43.88;98226.38;5028894;28;20271;-50
2022/05/21 10:41:01;;;;;;;2.08;1.15;;;18.70;48.50;;;18.50;43.51;98225.00;5044615;28;20083;-48
2022/05/21 10:44:10;;;;;;;1.67;1.23;;;18.80;48.60;;;18.52;42.84;98216.72;5028604;28;20053;-48
2022/05/21 10:46:58;;;;;;;1.98;0.88;;;18.90;47.30;;;18.61;44.41;98216.34;5028507;28;20324;-49
2022/05/21 10:49:54;;;;;;;2.45;1.40;;;18.90;49.70;;;18.73;43.90;98215.78;5028866;28;20128;-48
2022/05/21 10:52:30;;;;;;;3.97;1.20;;;19.00;49.70;;;18.53;43.23;98210.28;5028708;28;20053;-47
2022/05/21 10:55:20;;;;;;;2.22;1.80;;;18.90;48.30;;;18.61;43.47;98218.19;5029798;28;20060;-47
2022/05/21 10:58:12;;;;;;;3.08;1.00;;;19.00;48.40;;;18.59;42.97;98222.97;5027977;28;20056;-49
2022/05/21 11:01:09;;;;;;;5.38;1.20;;;18.90;47.70;;;18.62;42.62;98215.31;5027352;28;20068;-50
2022/05/21 11:03:55;;;;;;;1.48;1.00;;;19.00;46.70;;;18.66;43.01;98200.41;5027955;28;20049;-50
2022/05/21 11:06:25;;;;;;;2.78;1.20;;;19.00;47.90;;;18.72;44.11;98200.63;5028153;28;20068;-48
2022/05/21 11:09:40;;;;;;;4.22;1.00;;;19.00;49.40;;;18.80;42.46;98197.78;5028461;28;20053;-50
2022/05/21 11:12:20;;;;;;;;;;;19.20;47.50;;;18.94;42.25;98196.84;5026729;28;20233;-48
2022/05/21 11:15:06;;;;;;;2.13;1.10;;;19.30;47.00;;;19.06;43.42;98203.31;5027466;28;20119;-47